Terminal Aerodrome Forecast
Issued by NWS Green Bay, WI

Home | Current Version | Previous Version | Graphics & Text | Print | Product List | Glossary On
Versions: 1 2 3 4 5 6 7 8 9 10 11 12 13 14 15 16 17 18 19 20 21
000
FTUS43 KGRB 200520
TAFGRB
TAF
KGRB 200520Z 2006/2106 03013KT 1SM -FZDZ BR OVC003
      TEMPO 2006/2010 3SM -FZRA BR
     FM201100 11003KT 1/2SM -FZDZ FZFG OVC002 WS020/23030KT
     FM201600 24005KT 5SM -DZ BR OVC005
     FM202100 27007KT P6SM OVC007
     FM210000 29008KT P6SM OVC013
     FM210400 30010KT P6SM BKN020=

USA.gov is the U.S. government's official web portal to all federal, state and local government web resources and services.